Catàleg de serveis del Meteocat
Campanya meteocatpedra

Dades de l'estació automàtica Cabanes

?
?
Resum diari 22:30 TU
Dades diàries de l'estació meteorològica
Temperatura mitjana 10.2 °C
Temperatura màxima 14.7 °C 12:44 TU
Temperatura mínima 5.7 °C 22:48 TU
Humitat relativa mitjana 68%
Precipitació acumulada 0.0 mm
Ratxa màxima del vent (2 m) 45.0 km/h - 342º 14:16 TU
Irradiació solar global 7.7 MJ/m2

El tram horari està expressat en Temps Universal (TU). Cal sumar una hora en horari d'hivern i dues en horari d'estiu per passar a l'hora oficial.

Cabanes

Metadades estació meteorol´gica
Municipi Cabanes
Comarca Alt Empordà
Altitud 31 m
Data alta 11.06.1991
Estat actual Operativa
Dades de període
Període
TU
TM
°C
TX
°C
TN
°C
HRM
%
PPT
mm
VVM (2 m)
km/h
DVM (2 m)
graus
VVX (2 m)
km/h
RS
W/m2
00:00 - 00:30 8.0 8.8 7.2 77 0.0 1.4 293 5.8 0
00:30 - 01:00 7.0 7.2 6.9 82 0.0 1.8 291 5.8 0
01:00 - 01:30 6.9 7.1 6.7 82 0.0 1.4 279 6.1 0
01:30 - 02:00 6.7 7.1 6.4 81 0.0 1.1 254 4.7 0
02:00 - 02:30 6.7 6.9 6.4 83 0.0 2.2 339 5.4 0
02:30 - 03:00 6.3 6.4 6.0 85 0.0 2.2 294 5.4 0
03:00 - 03:30 6.2 6.5 5.8 85 0.0 0.7 216 2.5 0
03:30 - 04:00 6.6 8.0 6.0 86 0.0 1.8 270 8.6 0
04:00 - 04:30 7.7 8.5 7.3 82 0.0 2.9 317 9.7 0
04:30 - 05:00 9.0 9.5 8.5 79 0.0 8.3 317 18.0 0
05:00 - 05:30 9.0 9.6 8.2 78 0.0 5.8 302 17.6 0
05:30 - 06:00 9.0 9.5 8.4 76 0.0 7.9 314 16.9 0
06:00 - 06:30 9.5 9.7 9.2 74 0.0 10.1 315 21.6 0
06:30 - 07:00 9.8 10.0 9.6 71 0.0 11.2 328 20.5 10
07:00 - 07:30 10.1 10.4 9.8 70 0.0 11.9 329 22.7 50
07:30 - 08:00 10.8 11.3 10.4 68 0.0 10.1 343 20.2 159
08:00 - 08:30 11.4 11.6 11.2 65 0.0 13.3 341 23.8 195
08:30 - 09:00 11.2 11.3 11.2 65 0.0 13.0 339 22.7 119
09:00 - 09:30 11.2 11.4 11.2 66 0.0 10.4 333 19.8 138
09:30 - 10:00 11.6 11.7 11.5 64 0.0 12.2 339 26.3 164
10:00 - 10:30 12.0 12.6 11.7 64 0.0 13.0 342 25.6 286
10:30 - 11:00 13.0 13.4 12.5 62 0.0 16.9 338 31.3 512
11:00 - 11:30 13.1 13.6 12.7 62 0.0 14.4 335 27.0 310
11:30 - 12:00 13.1 13.4 12.8 61 0.0 14.8 337 27.4 305
12:00 - 12:30 13.2 13.6 13.1 61 0.0 10.8 331 22.3 222
12:30 - 13:00 14.2 14.7 13.7 57 0.0 14.8 331 31.0 401
13:00 - 13:30 13.8 14.1 13.7 57 0.0 18.0 343 37.1 407
13:30 - 14:00 13.7 13.9 13.5 57 0.0 19.1 342 35.3 363
14:00 - 14:30 13.4 13.6 13.2 56 0.0 22.3 344 45.0 297
14:30 - 15:00 13.1 13.2 13.0 54 0.0 20.9 341 41.0 222
15:00 - 15:30 12.7 12.9 12.4 53 0.0 20.5 339 36.7 144
15:30 - 16:00 12.0 12.3 11.9 55 0.0 16.2 337 30.6 34
16:00 - 16:30 11.9 12.0 11.6 53 0.0 15.1 334 29.2 10
16:30 - 17:00 11.7 11.9 11.5 53 0.0 14.0 338 25.9 0
17:00 - 17:30 11.9 12.0 11.8 50 0.0 11.2 338 21.6 0
17:30 - 18:00 11.6 11.8 11.5 51 0.0 9.0 327 17.6 0
18:00 - 18:30 11.8 11.9 11.5 50 0.0 9.7 327 20.2 0
18:30 - 19:00 11.6 11.7 11.5 51 0.0 5.8 338 10.4 0
19:00 - 19:30 11.3 11.6 10.9 53 0.0 2.9 293 9.4 0
19:30 - 20:00 10.5 10.9 9.5 56 0.0 1.4 257 4.7 0
20:00 - 20:30 8.5 9.4 7.8 67 0.0 0.4 189 3.2 0
20:30 - 21:00 7.0 7.7 6.7 78 0.0 0.7 212 2.9 0
21:00 - 21:30 7.8 7.9 7.5 77 0.0 0.0 202 3.2 0
21:30 - 22:00 7.6 7.8 7.3 81 0.0 0.7 18 3.2 0
22:00 - 22:30 6.7 7.5 5.8 80 0.0 1.1 204 3.6 0
22:30 - 23:00 5.8 5.8 5.7 87 0.0 0.4 222 3.6 0

Les dades en taronja només han passat un control de qualitat automàtic. Resta pendent la seva validació definitiva.